Terminal Aerodrome Forecast
Issued by NWS

Home | Current Version | Previous Version | Text Only | Print | Product List | Glossary On
Versions: 1 2 3 4 5 6 7 8 9 10 11 12
753
FTUS42 TJSJ 251739
TAFNCM
TAF
TNCM 251739Z 2518/2618 10011KT P6SM VCSH FEW020 SCT040
     FM252300 07008KT P6SM FEW018
     FM260400 08005KT P6SM VCSH SCT018 SCT035
     FM261450 11012KT P6SM SCT024=

USA.gov is the U.S. government's official web portal to all federal, state and local government web resources and services.